This is the latest recevied weather packets stored in our database for station/object TA2NC-13. If no packets are shown the sender has not sent any weather packets the latest 10 day(s).
| Time | Temp. | Humidity | Pressure | Rain* | Wind** | Luminosity | Snow |
|---|---|---|---|---|---|---|---|
| 1778134200 | 13.89° C | 58% | 1020 hPa | 0 mm | - | - | - |
| 1778133600 | 12.78° C | 60% | 1020 hPa | 0 mm | - | - | - |
| 1778133001 | 12.78° C | 60% | 1020 hPa | 0 mm | - | - | - |
| 1778132401 | 11.67° C | 68% | 1020 hPa | 0 mm | - | - | - |
| 1778131800 | 10° C | 69% | 1020 hPa | 0 mm | - | - | - |
| 1778131200 | 8.89° C | 74% | 1020 hPa | 0 mm | - | - | - |
| 1778130600 | 8.33° C | 75% | 1020 hPa | 0 mm | - | - | - |
| 1778130001 | 7.78° C | 79% | 1020 hPa | 0 mm | - | - | - |
| 1778129400 | 7.22° C | 78% | 1020 hPa | 0 mm | - | - | - |
| 1778128800 | 6.11° C | 83% | 1019.5 hPa | 0 mm | - | - | - |
| 1778128201 | 5.56° C | 83% | 1019.5 hPa | 0 mm | - | - | - |
| 1778127600 | 5° C | 82% | 1019.5 hPa | 0 mm | - | - | - |
| 1778127000 | 5° C | 82% | 1019.5 hPa | 0 mm | - | - | - |
| 1778126401 | 5° C | 83% | 1019.5 hPa | 0 mm | - | - | - |
| 1778125800 | 4.44° C | 83% | 1019.5 hPa | 0 mm | - | - | - |
| 1778125201 | 3.89° C | 83% | 1019.5 hPa | 0 mm | - | - | - |
| 1778124600 | 3.89° C | 84% | 1019.5 hPa | 0 mm | - | - | - |
| 1778124000 | 3.89° C | 83% | 1019.5 hPa | 0 mm | - | - | - |
| 1778123400 | 3.89° C | 83% | 1019.5 hPa | 0 mm | - | - | - |
| 1778122801 | 3.89° C | 83% | 1016 hPa | 0 mm | - | - | - |
| 1778122201 | 3.89° C | 83% | 1016 hPa | 0 mm | - | - | - |
| 1778121600 | 3.89° C | 83% | 1016 hPa | 0 mm | - | - | - |
| 1778121000 | 3.89° C | 83% | 1016 hPa | 0 mm | - | - | - |
| 1778120401 | 3.89° C | 82% | 1016 hPa | 0 mm | - | - | - |
| 1778119801 | 3.89° C | 82% | 1016 hPa | 0 mm | - | - | - |
* Rain latest hour (hover to see other rain measurements)
** Current wind speed in m/s (hover to see current wind gust speed)